Conrad, Montana
Current Conditions -  °F | °C
As of 12:56 PM on Friday 21 Nov 2014 (Local Time) from KCTB Reporting Station
Clear Clear  
Wind Chill: 37°   Ceiling: Unl
Heat Index: 45°   Visibility: 10mi
Dew Point: 28°   Wind: 22mph
Humidity: 52%   Direction: 250°WSW
Pressure: 29.69"   Gusts: 29mph
Location:  48.17°N, 111.95°W
Report Text: KCTB 211956Z AUTO 25019G25KT 10SM CLR 07/M02 A2969 RMK AO2 PK WND 25027/1906 SLP063 T00721022
Loading
Personal Weather Stations






























Interactive Weather Map New forecast layout! Learn more

10-Day Weather Forecast

Advertisements
Track Severe Weather on mobile